Time;durP1;ratioP1;P1;durP2;ratioP2;P2;SDS_P1;SDS_P2;PMS_P1;PMS_P2;Temp;Humidity;BMP_temperature;BMP_pressure;BME280_temperature;BME280_humidity;BME280_pressure;Samples;Min_cycle;Max_cycle;Signal;HPM_P1;HPM_P2
2022/12/14 00:01:17;;;;;;;14.75;5.10;;;;;;;1.56;86.67;94356.41;5028609;28;20235;-81
2022/12/14 00:03:44;;;;;;;13.05;4.95;;;;;;;1.72;86.47;94346.41;5030185;28;20205;-82
2022/12/14 00:06:14;;;;;;;10.43;3.63;;;;;;;1.75;86.96;94348.53;5030072;28;20319;-82
2022/12/14 00:08:42;;;;;;;11.13;4.68;;;;;;;1.71;87.61;94344.81;5017527;28;20634;-82
2022/12/14 00:11:11;;;;;;;11.23;4.28;;;;;;;1.56;86.94;94358.28;5028921;28;20726;-82
2022/12/14 00:13:38;;;;;;;11.98;5.38;;;;;;;1.73;87.28;94348.00;5017074;28;20215;-82
2022/12/14 00:16:08;;;;;;;17.30;6.05;;;;;;;1.70;86.92;94364.59;5028432;28;20745;-81
2022/12/14 00:18:35;;;;;;;14.02;5.07;;;;;;;1.81;86.39;94358.09;5029313;28;20208;-82
2022/12/14 00:21:06;;;;;;;12.25;4.97;;;;;;;1.54;87.53;94360.44;5015753;28;20237;-83
2022/12/14 00:23:35;;;;;;;12.27;5.60;;;;;;;1.52;87.64;94367.91;5036495;28;20203;-81
2022/12/14 00:26:13;;;;;;;11.75;5.22;;;;;;;1.47;88.26;94365.28;5032750;28;20266;-82
2022/12/14 00:28:41;;;;;;;10.07;6.03;;;;;;;1.45;88.57;94357.56;5018152;28;20604;-81
2022/12/14 00:31:08;;;;;;;8.55;5.03;;;;;;;1.49;89.54;94355.13;5022683;28;20211;-81
2022/12/14 00:33:35;;;;;;;8.48;4.15;;;;;;;1.38;89.55;94357.06;5022005;28;21019;-81
2022/12/14 00:36:03;;;;;;;10.07;4.35;;;;;;;1.39;90.07;94353.31;5017060;28;20568;-81
2022/12/14 00:38:30;;;;;;;13.63;5.43;;;;;;;1.36;90.24;94344.00;5029862;28;20208;-81
2022/12/14 00:40:58;;;;;;;12.80;5.47;;;;;;;1.56;90.34;94353.75;5011459;28;20224;-81
2022/12/14 00:43:25;;;;;;;12.68;5.22;;;;;;;1.51;90.11;94350.28;5022813;28;20570;-79
2022/12/14 00:45:53;;;;;;;15.02;6.60;;;;;;;1.61;90.30;94355.59;5030044;28;20922;-80
2022/12/14 00:48:22;;;;;;;14.38;5.38;;;;;;;1.63;90.05;94358.78;5017621;28;20204;-79
2022/12/14 00:50:50;;;;;;;8.15;4.47;;;;;;;1.75;89.98;94356.56;5015989;28;20204;-80
2022/12/14 00:53:17;;;;;;;9.13;5.53;;;;;;;1.69;89.35;94363.00;5029921;28;20208;-81
2022/12/14 00:55:46;;;;;;;14.05;6.28;;;;;;;1.75;89.76;94365.34;5016950;28;20849;-80
2022/12/14 00:58:16;;;;;;;12.50;4.28;;;;;;;1.80;89.46;94359.16;5017189;28;20694;-79
2022/12/14 01:00:44;;;;;;;18.55;6.82;;;;;;;1.77;89.63;94357.88;5015641;28;20232;-79
2022/12/14 01:03:11;;;;;;;11.23;6.05;;;;;;;1.69;91.03;94357.66;5029566;28;20668;-79
2022/12/14 01:05:39;;;;;;;10.57;6.43;;;;;;;1.72;90.91;94357.09;5016177;28;20200;-79
2022/12/14 01:08:06;;;;;;;11.93;6.20;;;;;;;1.58;91.17;94356.13;5029049;28;20255;-80
2022/12/14 01:10:33;;;;;;;8.52;3.55;;;;;;;1.64;91.77;94353.13;5009338;28;20208;-80
2022/12/14 01:13:00;;;;;;;12.52;4.18;;;;;;;1.77;91.64;94357.06;5023340;28;20235;-80
2022/12/14 01:15:28;;;;;;;15.20;5.45;;;;;;;1.75;91.60;94351.22;5029693;28;20204;-81
2022/12/14 01:17:55;;;;;;;8.05;5.20;;;;;;;1.56;92.35;94366.28;5016430;28;20282;-80
2022/12/14 01:20:22;;;;;;;16.17;4.82;;;;;;;1.56;92.09;94364.41;5022317;28;20279;-80
2022/12/14 01:22:54;;;;;;;6.82;3.63;;;;;;;1.09;91.95;94356.97;5011410;28;20204;-79
2022/12/14 01:25:22;;;;;;;4.13;2.75;;;;;;;0.54;93.54;94358.00;5040991;28;20565;-80
2022/12/14 01:27:48;;;;;;;3.50;2.08;;;;;;;0.21;95.51;94352.22;5029519;28;20220;-78
2022/12/14 01:30:17;;;;;;;4.45;2.80;;;;;;;-0.07;96.68;94358.94;5029708;28;20208;-79
2022/12/14 01:32:45;;;;;;;7.35;2.65;;;;;;;-0.05;97.82;94362.13;5016144;28;20271;-81
2022/12/14 01:35:12;;;;;;;6.18;1.83;;;;;;;-0.10;98.75;94351.47;5019598;28;20267;-80
2022/12/14 01:37:39;;;;;;;16.27;7.80;;;;;;;-0.14;98.96;94346.97;5024711;28;20209;-82
2022/12/14 01:40:07;;;;;;;13.90;7.50;;;;;;;-0.12;99.54;94353.59;5023417;28;20618;-81
2022/12/14 01:42:35;;;;;;;15.45;7.50;;;;;;;-0.25;99.52;94334.72;5021896;28;20208;-82
2022/12/14 01:45:03;;;;;;;13.82;7.85;;;;;;;-0.39;99.80;94321.94;5033183;28;20234;-81
2022/12/14 01:47:38;;;;;;;14.95;7.65;;;;;;;-0.36;100.00;94336.59;5026781;28;20212;-80
2022/12/14 01:50:15;;;;;;;12.90;7.25;;;;;;;-0.52;100.00;94329.66;5026661;28;20192;-80
2022/12/14 01:52:45;;;;;;;13.30;7.45;;;;;;;-0.32;100.00;94340.31;5022286;28;20196;-80
2022/12/14 01:55:18;;;;;;;12.68;7.55;;;;;;;-0.50;100.00;94332.84;5030397;28;20201;-81
2022/12/14 01:57:49;;;;;;;9.57;6.05;;;;;;;-0.47;100.00;94338.44;5024204;28;20192;-78
2022/12/14 02:00:17;;;;;;;13.52;7.82;;;;;;;-0.54;100.00;94337.09;5019421;28;20221;-81
2022/12/14 02:05:37;;;;;;;8.93;6.05;;;;;;;-0.50;100.00;94332.84;5019248;28;20572;-79
2022/12/14 02:08:07;;;;;;;14.13;7.60;;;;;;;-0.55;100.00;94308.94;5030740;28;20672;-79
2022/12/14 02:10:34;;;;;;;14.70;8.13;;;;;;;-0.65;100.00;94330.19;5021978;28;20676;-80
2022/12/14 02:13:05;;;;;;;15.52;7.88;;;;;;;-0.67;100.00;94321.66;5017448;28;20201;-80
2022/12/14 02:15:34;;;;;;;13.95;7.78;;;;;;;-0.62;100.00;94329.66;5012875;28;20796;-78
2022/12/14 02:18:05;;;;;;;12.52;6.85;;;;;;;-0.53;100.00;94322.75;5026377;28;20672;-80
2022/12/14 02:20:43;;;;;;;13.38;7.70;;;;;;;-0.53;100.00;94312.09;5023629;28;20274;-79
2022/12/14 02:23:37;;;;;;;15.63;7.95;;;;;;;-0.51;100.00;94324.06;5022871;28;20539;-80
2022/12/14 02:26:53;;;;;;;14.35;8.55;;;;;;;-0.51;100.00;94312.63;5035559;28;20266;-81
2022/12/14 02:29:50;;;;;;;15.00;7.65;;;;;;;-0.49;100.00;94315.84;5029420;28;20231;-81
2022/12/14 02:32:35;;;;;;;13.50;7.95;;;;;;;-0.65;100.00;94315.03;5025554;28;20207;-78
2022/12/14 02:35:12;;;;;;;14.98;8.15;;;;;;;-0.59;100.00;94313.19;5022511;28;20195;-81
2022/12/14 02:37:49;;;;;;;15.20;8.50;;;;;;;-0.57;100.00;94298.56;5027508;28;20193;-79
2022/12/14 02:40:25;;;;;;;14.00;8.35;;;;;;;-0.54;100.00;94299.88;5025917;28;20212;-81
2022/12/14 02:43:02;;;;;;;20.45;9.07;;;;;;;-0.57;100.00;94289.78;5020930;28;20258;-82
2022/12/14 02:45:37;;;;;;;15.48;8.25;;;;;;;-0.55;100.00;94303.63;5031855;28;20219;-82
2022/12/14 02:48:09;;;;;;;14.10;8.43;;;;;;;-0.56;100.00;94302.03;5032031;28;20192;-82
2022/12/14 02:50:43;;;;;;;16.52;9.20;;;;;;;-0.57;100.00;94290.59;5019124;28;20196;-82
2022/12/14 02:53:28;;;;;;;13.32;8.35;;;;;;;-0.67;100.00;94284.44;5019704;28;20197;-83
2022/12/14 02:56:15;;;;;;;14.18;8.50;;;;;;;-0.55;100.00;94308.94;5012439;28;20193;-82
2022/12/14 02:58:47;;;;;;;17.05;9.27;;;;;;;-0.57;100.00;94282.59;5016430;28;20219;-82
2022/12/14 03:01:19;;;;;;;15.95;9.38;;;;;;;-0.51;100.00;94283.38;5031555;28;20227;-81
2022/12/14 03:03:46;;;;;;;3.40;2.20;;;;;;;-0.50;100.00;94300.94;5031690;28;20192;-83
2022/12/14 03:06:24;;;;;;;0.95;0.88;;;;;;;-0.49;100.00;94283.91;5019914;28;20225;-83
2022/12/14 03:08:53;;;;;;;2.45;2.22;;;;;;;-0.43;100.00;94291.63;5011437;28;20826;-82
2022/12/14 03:11:23;;;;;;;3.80;1.70;;;;;;;-0.39;100.00;94291.88;5026828;28;20655;-82
2022/12/14 03:13:54;;;;;;;15.27;8.13;;;;;;;-0.36;100.00;94291.34;5022719;28;20807;-82
2022/12/14 03:16:25;;;;;;;16.05;8.73;;;;;;;-0.52;99.19;94298.53;5025064;28;20211;-80
2022/12/14 03:18:56;;;;;;;12.77;7.82;;;;;;;-0.47;99.70;94295.09;5022141;28;20211;-84
2022/12/14 03:21:27;;;;;;;14.18;8.45;;;;;;;-0.43;99.31;94294.28;5026863;28;20272;-82
2022/12/14 03:23:57;;;;;;;14.57;8.52;;;;;;;-0.33;98.59;94290.03;5030586;28;20192;-83
2022/12/14 03:26:28;;;;;;;13.18;6.97;;;;;;;-0.27;98.63;94292.41;5032328;28;20193;-83
2022/12/14 03:29:00;;;;;;;15.88;8.85;;;;;;;-0.20;98.17;94276.97;5019868;28;20201;-84
2022/12/14 03:31:35;;;;;;;15.70;8.70;;;;;;;-0.21;98.77;94270.03;5025276;28;20243;-84
2022/12/14 03:34:05;;;;;;;15.70;8.95;;;;;;;-0.13;98.56;94277.47;5025069;28;20196;-83
2022/12/14 03:36:40;;;;;;;16.20;9.20;;;;;;;-0.19;97.99;94280.44;5029109;28;20656;-83
2022/12/14 03:39:12;;;;;;;14.75;8.57;;;;;;;-0.20;98.05;94284.94;5016096;28;20833;-82
2022/12/14 03:41:50;;;;;;;2.03;1.80;;;;;;;-0.20;96.84;94284.94;5021011;28;20304;-83
2022/12/14 03:44:31;;;;;;;1.60;1.40;;;;;;;-0.21;96.41;94288.69;5031228;28;20253;-83
2022/12/14 03:47:08;;;;;;;1.90;1.58;;;;;;;-0.21;96.73;94280.69;5025817;28;20208;-82
2022/12/14 03:49:48;;;;;;;4.13;1.17;;;;;;;-0.12;97.13;94292.38;5031652;28;20196;-83
2022/12/14 03:52:23;;;;;;;4.22;2.35;;;;;;;-0.14;95.90;94275.91;5017789;28;20199;-84
2022/12/14 03:55:00;;;;;;;1.70;1.60;;;;;;;-0.15;94.47;94279.63;5018189;28;20266;-83
2022/12/14 03:57:44;;;;;;;1.60;1.50;;;;;;;-0.02;95.13;94270.28;5011512;28;20196;-84
2022/12/14 04:00:15;;;;;;;2.30;1.58;;;;;;;0.14;95.15;94279.81;5010596;28;20197;-83
2022/12/14 04:02:49;;;;;;;3.78;2.30;;;;;;;0.18;94.03;94280.84;5022332;28;20650;-85
2022/12/14 04:05:25;;;;;;;4.85;1.67;;;;;;;0.17;92.58;94276.59;5024870;28;20251;-85
2022/12/14 04:07:58;;;;;;;2.58;1.58;;;;;;;0.12;92.98;94286.50;5023035;28;20306;-83
2022/12/14 04:19:05;;;;;;;3.20;2.15;;;;;;;0.44;91.47;94286.88;5030271;28;20207;-85
2022/12/14 04:21:40;;;;;;;1.88;1.25;;;;;;;0.52;92.53;94289.00;5030185;28;20219;-85
2022/12/14 04:27:14;;;;;;;2.30;1.77;;;;;;;0.43;91.09;94292.50;5030181;28;20206;-84
2022/12/14 04:29:59;;;;;;;1.42;1.25;;;;;;;0.61;91.18;94283.91;5030021;28;20271;-84
2022/12/14 04:32:33;;;;;;;4.00;1.65;;;;;;;0.33;90.14;94288.00;5016377;28;20625;-84
2022/12/14 04:35:07;;;;;;;3.20;2.13;;;;;;;0.31;93.04;94290.13;5029855;28;20732;-80
2022/12/14 04:37:39;;;;;;;5.18;2.50;;;;;;;0.61;94.23;94287.34;5029359;28;20250;-87
2022/12/14 04:40:12;;;;;;;3.83;1.75;;;;;;;0.41;91.28;94292.75;5030814;28;20475;-86
2022/12/14 04:42:45;;;;;;;4.20;2.83;;;;;;;0.33;90.94;94299.47;5029539;28;20223;-79
2022/12/14 04:45:18;;;;;;;4.45;1.77;;;;;;;0.17;91.42;94303.22;5029950;28;20658;-79
2022/12/14 04:47:52;;;;;;;1.10;1.00;;;;;;;0.17;91.72;94319.22;5030680;28;20208;-80
2022/12/14 04:50:26;;;;;;;3.40;2.47;;;;;;;0.19;91.30;94309.09;5027333;28;20737;-85
2022/12/14 04:53:00;;;;;;;1.95;1.80;;;;;;;0.22;91.45;94313.88;5021241;28;20199;-86
2022/12/14 04:55:33;;;;;;;2.10;1.48;;;;;;;0.15;89.00;94307.22;5028955;28;20227;-85
2022/12/14 04:58:06;;;;;;;7.03;1.88;;;;;;;0.15;87.67;94296.56;5031270;28;20238;-81
2022/12/14 05:00:37;;;;;;;2.13;1.95;;;;;;;0.28;88.10;94298.66;5023089;28;20655;-90
2022/12/14 05:03:23;;;;;;;4.85;1.80;;;;;;;0.29;88.42;94302.94;5042532;28;20208;-80
2022/12/14 05:06:02;;;;;;;3.20;1.83;;;;;;;0.32;86.09;94286.41;5024629;28;20220;-81
2022/12/14 05:08:50;;;;;;;7.82;4.38;;;;;;;0.28;87.63;94290.69;5031088;28;20236;-85
2022/12/14 05:11:24;;;;;;;9.57;5.57;;;;;;;0.22;87.18;94286.44;5034243;28;20216;-85
2022/12/14 05:13:51;;;;;;;3.08;1.98;;;;;;;0.24;87.66;94282.44;5038070;28;20207;-78
2022/12/14 05:16:19;;;;;;;2.72;1.42;;;;;;;0.22;88.14;94291.78;5028220;28;20239;-84
2022/12/14 05:18:46;;;;;;;1.90;1.08;;;;;;;0.30;88.00;94307.19;5028594;28;20205;-83
2022/12/14 05:23:55;;;;;;;3.22;1.60;;;;;;;0.15;87.99;94324.00;5023650;28;20201;-87
2022/12/14 05:26:22;;;;;;;8.25;4.63;;;;;;;0.19;88.76;94318.94;5028200;28;20197;-82
2022/12/14 05:28:49;;;;;;;7.60;4.30;;;;;;;0.28;87.94;94319.97;5035812;28;20201;-83
2022/12/14 05:31:16;;;;;;;0.65;0.52;;;;;;;0.23;88.05;94325.31;5039331;28;20725;-87
2022/12/14 05:33:42;;;;;;;5.00;1.90;;;;;;;0.23;88.32;94349.28;5038159;28;20732;-84
2022/12/14 05:36:09;;;;;;;2.50;2.30;;;;;;;0.19;88.52;94361.56;5037834;28;20744;-87
2022/12/14 05:38:38;;;;;;;1.83;1.33;;;;;;;0.04;88.49;94358.91;5039399;28;20204;-85
2022/12/14 05:41:08;;;;;;;3.53;2.20;;;;;;;0.06;89.38;94356.78;5037729;28;20228;-89
2022/12/14 05:43:40;;;;;;;12.18;2.55;;;;;;;0.05;89.90;94336.53;5039571;28;20205;-87
2022/12/14 05:46:11;;;;;;;2.47;1.55;;;;;;;0.08;90.65;94341.34;5042442;28;20203;-85
2022/12/14 05:48:39;;;;;;;6.40;4.97;;;;;;;-0.05;91.17;94324.84;5039535;28;20269;-84
2022/12/14 05:51:07;;;;;;;7.40;4.03;;;;;;;-0.06;91.69;94331.25;5038438;28;20267;-84
2022/12/14 05:53:34;;;;;;;8.40;4.90;;;;;;;-0.12;91.33;94318.19;5037631;28;20326;-88
2022/12/14 05:56:06;;;;;;;12.77;6.65;;;;;;;-0.15;91.88;94318.75;5036362;28;20215;-84
2022/12/14 05:58:33;;;;;;;8.85;4.80;;;;;;;-0.12;91.12;94328.84;5037304;28;20311;-83
2022/12/14 06:01:01;;;;;;;3.08;1.77;;;;;;;-0.15;91.53;94340.84;5037942;28;20628;-81
2022/12/14 06:03:29;;;;;;;2.75;1.95;;;;;;;-0.16;91.64;94333.94;5038057;28;20685;-85
2022/12/14 06:06:01;;;;;;;3.28;2.20;;;;;;;-0.17;91.73;94344.84;5036706;28;20235;-85
2022/12/14 06:08:32;;;;;;;1.48;1.38;;;;;;;-0.09;91.69;94339.75;5037073;28;20702;-83
2022/12/14 06:11:07;;;;;;;4.47;2.88;;;;;;;-0.26;91.70;94349.88;5037658;28;20236;-82
2022/12/14 06:13:34;;;;;;;0.57;0.57;;;;;;;-0.28;93.32;94345.91;5027099;28;20207;-84
2022/12/14 06:16:10;;;;;;;2.22;1.25;;;;;;;-0.23;93.25;94349.34;5037711;28;20231;-83
2022/12/14 06:18:40;;;;;;;1.38;1.02;;;;;;;-0.33;93.82;94354.69;5037237;28;20230;-83
2022/12/14 06:21:08;;;;;;;2.55;1.35;;;;;;;-0.35;94.00;94346.16;5036321;28;20212;-82
2022/12/14 06:23:37;;;;;;;3.13;1.80;;;;;;;-0.32;95.04;94345.63;5041101;28;20607;-82
2022/12/14 06:26:07;;;;;;;2.35;1.10;;;;;;;-0.36;94.78;94347.22;5038937;28;20216;-83
2022/12/14 06:28:35;;;;;;;10.60;6.35;;;;;;;-0.32;95.81;94366.94;5035018;28;20621;-83
2022/12/14 06:31:02;;;;;;;11.88;5.70;;;;;;;-0.23;95.22;94361.84;5034756;28;20615;-80
2022/12/14 06:33:29;;;;;;;3.80;2.65;;;;;;;-0.35;95.19;94364.78;5035924;28;20204;-82
2022/12/14 06:35:56;;;;;;;3.03;1.98;;;;;;;-0.21;94.75;94367.72;5034200;28;20259;-85
2022/12/14 06:38:23;;;;;;;3.38;2.13;;;;;;;-0.23;93.72;94360.00;5034870;28;20200;-81
2022/12/14 06:40:49;;;;;;;4.43;1.83;;;;;;;-0.31;94.07;94352.56;5034548;28;20204;-85
2022/12/14 06:43:18;;;;;;;8.63;2.40;;;;;;;-0.25;93.67;94367.44;5033318;28;20278;-83
2022/12/14 06:45:45;;;;;;;15.68;8.40;;;;;;;-0.30;93.58;94356.03;5033973;28;20212;-79
2022/12/14 06:48:11;;;;;;;17.05;9.20;;;;;;;-0.35;93.93;94362.13;5032731;28;20571;-83
2022/12/14 06:50:38;;;;;;;12.02;7.13;;;;;;;-0.35;95.18;94359.47;5033385;28;20209;-81
2022/12/14 06:53:05;;;;;;;15.65;7.90;;;;;;;-0.37;95.64;94364.25;5032441;28;20298;-81
2022/12/14 06:55:32;;;;;;;12.30;7.65;;;;;;;-0.46;95.58;94366.66;5032515;28;20282;-79
2022/12/14 06:57:59;;;;;;;12.50;7.75;;;;;;;-0.44;96.92;94364.53;5033472;28;20209;-81
2022/12/14 07:00:27;;;;;;;14.48;8.35;;;;;;;-0.34;96.74;94365.59;5032182;28;20582;-80
2022/12/14 07:02:54;;;;;;;13.45;8.45;;;;;;;-0.38;96.98;94381.28;5032345;28;20280;-79
2022/12/14 07:05:22;;;;;;;5.45;2.72;;;;;;;-0.40;97.60;94392.19;5032156;28;20216;-82
2022/12/14 07:07:49;;;;;;;4.18;2.03;;;;;;;-0.27;98.79;94401.50;5031756;28;20267;-80
2022/12/14 07:10:21;;;;;;;2.58;2.13;;;;;;;-0.13;99.02;94404.44;5031856;28;20208;-82
2022/12/14 07:12:48;;;;;;;5.65;2.30;;;;;;;-0.19;97.88;94393.00;5031918;28;20204;-78
2022/12/14 07:15:14;;;;;;;6.82;4.55;;;;;;;-0.15;97.58;94388.75;5031549;28;20205;-78
2022/12/14 07:17:42;;;;;;;9.40;5.30;;;;;;;-0.24;96.81;94390.31;5030527;28;20459;-79
2022/12/14 07:20:10;;;;;;;4.05;1.90;;;;;;;-0.17;96.12;94374.91;5031553;28;20200;-82
2022/12/14 07:22:37;;;;;;;1.13;1.08;;;;;;;-0.15;95.73;94378.09;5030985;28;20768;-81
2022/12/14 07:25:04;;;;;;;6.70;3.42;;;;;;;-0.18;95.34;94389.28;5041637;28;20208;-78
2022/12/14 07:27:31;;;;;;;3.25;2.58;;;;;;;-0.15;94.63;94388.75;5030884;28;20568;-79
2022/12/14 07:29:58;;;;;;;0.90;0.90;;;;;;;-0.13;94.65;94385.81;5031655;28;20757;-81
2022/12/14 07:32:25;;;;;;;4.97;3.17;;;;;;;-0.04;95.42;94385.03;5031294;28;20893;-81
2022/12/14 07:34:53;;;;;;;1.50;1.08;;;;;;;0.09;95.61;94389.00;5030982;28;20254;-81
2022/12/14 07:37:20;;;;;;;4.97;2.13;;;;;;;0.07;95.17;94377.81;5032585;28;20208;-81
2022/12/14 07:39:47;;;;;;;6.68;3.67;;;;;;;-0.13;94.18;94391.13;5031890;28;20224;-81
2022/12/14 07:42:13;;;;;;;2.47;2.28;;;;;;;-0.13;95.17;94397.25;5032942;28;20235;-79
2022/12/14 07:44:40;;;;;;;10.63;2.65;;;;;;;-0.01;95.79;94394.34;5031566;28;20235;-78
2022/12/14 07:47:07;;;;;;;2.45;2.25;;;;;;;-0.03;95.57;94394.59;5031256;28;20216;-80
2022/12/14 07:49:34;;;;;;;17.13;10.25;;;;;;;-0.07;95.36;94401.50;5031224;28;20200;-82
2022/12/14 07:52:02;;;;;;;6.38;2.45;;;;;;;-0.26;95.89;94387.13;5031580;28;20227;-79
2022/12/14 07:54:29;;;;;;;2.30;2.08;;;;;;;-0.21;97.45;94389.81;5031026;28;20305;-82
2022/12/14 07:56:56;;;;;;;5.45;3.35;;;;;;;-0.25;97.49;94407.34;5031135;28;20278;-80
2022/12/14 07:59:23;;;;;;;4.88;2.83;;;;;;;-0.27;97.96;94406.81;5030617;28;20202;-80
2022/12/14 08:01:51;;;;;;;5.05;3.38;;;;;;;-0.31;98.08;94392.47;5030803;28;20699;-81
2022/12/14 08:04:23;;;;;;;5.80;4.38;;;;;;;-0.35;98.01;94399.38;5031465;28;20204;-81
2022/12/14 08:06:50;;;;;;;2.58;1.65;;;;;;;-0.32;97.90;94390.88;5032832;28;20221;-80
2022/12/14 08:09:19;;;;;;;4.13;2.58;;;;;;;-0.25;97.06;94404.69;5033980;28;20264;-82
2022/12/14 08:11:46;;;;;;;18.10;10.65;;;;;;;-0.16;97.21;94418.28;5030204;28;20208;-82
2022/12/14 08:14:15;;;;;;;17.27;11.00;;;;;;;-0.05;97.39;94415.38;5031495;28;20200;-82
2022/12/14 08:16:43;;;;;;;13.95;8.10;;;;;;;-0.13;97.05;94407.88;5034765;28;20576;-80
2022/12/14 08:19:10;;;;;;;16.35;5.97;;;;;;;-0.27;97.95;94417.47;5033014;28;20239;-80
2022/12/14 08:21:37;;;;;;;4.45;3.25;;;;;;;-0.21;98.94;94419.06;5031464;28;20531;-81
2022/12/14 08:24:04;;;;;;;4.13;1.70;;;;;;;-0.08;98.97;94421.22;5042106;28;20215;-84
2022/12/14 08:26:32;;;;;;;5.47;3.05;;;;;;;0.14;98.46;94425.47;5030829;28;20303;-80
2022/12/14 08:28:59;;;;;;;3.38;2.60;;;;;;;0.33;97.80;94431.84;5031357;28;20246;-83
2022/12/14 08:31:27;;;;;;;5.15;2.25;;;;;;;0.32;97.61;94427.56;5031501;28;20212;-81
2022/12/14 08:33:54;;;;;;;2.83;2.30;;;;;;;0.76;98.39;94432.28;5031501;28;20303;-81
2022/12/14 08:36:23;;;;;;;2.55;2.35;;;;;;;0.45;96.58;94424.34;5031529;28;20220;-79
2022/12/14 08:38:53;;;;;;;4.28;2.72;;;;;;;0.62;97.67;94419.53;5030583;28;20212;-79
2022/12/14 08:41:20;;;;;;;11.35;3.50;;;;;;;0.73;96.91;94414.16;5030608;28;20235;-79
2022/12/14 08:43:51;;;;;;;9.15;4.30;;;;;;;0.57;95.61;94400.88;5029487;28;20323;-80
2022/12/14 08:46:19;;;;;;;6.45;3.63;;;;;;;0.42;96.29;94413.44;5030789;28;20200;-83
2022/12/14 08:48:46;;;;;;;2.72;2.08;;;;;;;0.38;96.43;94405.22;5030026;28;20590;-81
2022/12/14 08:51:13;;;;;;;4.80;3.38;;;;;;;0.23;97.09;94415.88;5030091;28;20208;-80
2022/12/14 08:53:43;;;;;;;5.32;3.33;;;;;;;0.30;97.61;94405.75;5030389;28;20207;-80
2022/12/14 08:56:12;;;;;;;4.88;1.60;;;;;;;0.47;97.78;94406.25;5030200;28;20200;-79
2022/12/14 08:58:39;;;;;;;4.50;2.65;;;;;;;0.76;96.94;94413.63;5029252;28;20196;-79
2022/12/14 09:01:10;;;;;;;9.00;3.97;;;;;;;0.67;96.02;94406.22;5029269;28;20216;-78
2022/12/14 09:03:37;;;;;;;4.65;2.40;;;;;;;0.81;96.19;94403.75;5030850;28;20223;-79
2022/12/14 09:06:06;;;;;;;2.28;1.77;;;;;;;0.90;95.78;94390.66;5030587;28;20223;-80
2022/12/14 09:08:33;;;;;;;7.05;3.50;;;;;;;0.99;95.79;94392.47;5032955;28;20717;-79
2022/12/14 09:11:00;;;;;;;6.70;4.50;;;;;;;0.96;94.84;94386.88;5031273;28;20212;-78
2022/12/14 09:13:27;;;;;;;5.03;2.60;;;;;;;0.93;95.33;94404.25;5030238;28;20266;-79
2022/12/14 09:15:59;;;;;;;8.57;4.45;;;;;;;0.53;95.63;94399.84;5030488;28;20258;-79
2022/12/14 09:18:29;;;;;;;4.15;2.15;;;;;;;0.54;96.43;94388.13;5031011;28;20200;-80
2022/12/14 09:20:56;;;;;;;3.65;2.75;;;;;;;0.45;96.68;94370.28;5030969;28;20270;-79
2022/12/14 09:23:24;;;;;;;4.22;2.30;;;;;;;0.47;96.62;94387.59;5035448;28;20219;-78
2022/12/14 09:26:02;;;;;;;7.88;3.55;;;;;;;0.58;96.33;94386.50;5049986;28;20239;-78
2022/12/14 09:28:30;;;;;;;3.53;2.67;;;;;;;0.66;96.45;94383.28;5050495;28;20188;-76
2022/12/14 09:30:57;;;;;;;4.65;3.58;;;;;;;0.66;96.68;94372.63;5049882;28;20207;-77
2022/12/14 09:33:24;;;;;;;3.47;1.85;;;;;;;0.89;95.54;94365.88;5049997;28;20192;-76
2022/12/14 09:35:53;;;;;;;9.73;3.92;;;;;;;0.76;94.90;94371.78;5049212;28;20219;-76
2022/12/14 09:38:20;;;;;;;6.15;4.10;;;;;;;0.68;93.82;94354.47;5049250;28;20261;-76
2022/12/14 09:40:52;;;;;;;1.67;1.45;;;;;;;1.11;94.44;94352.16;5049445;28;20688;-75
2022/12/14 09:43:33;;;;;;;9.10;3.75;;;;;;;0.97;91.89;94364.47;5036621;28;20216;-77
2022/12/14 09:46:13;;;;;;;1.92;0.95;;;;;;;1.17;92.31;94355.59;5022981;28;20600;-76
2022/12/14 09:48:42;;;;;;;2.92;1.45;;;;;;;1.24;93.35;94358.75;5031129;28;20593;-75
2022/12/14 09:51:15;;;;;;;7.25;3.85;;;;;;;1.12;92.77;94372.41;5028765;28;20220;-76
2022/12/14 09:53:43;;;;;;;6.20;3.58;;;;;;;1.09;92.36;94370.31;5028385;28;20205;-77
2022/12/14 09:56:16;;;;;;;3.13;2.38;;;;;;;1.08;91.83;94368.72;5029282;28;20201;-75
2022/12/14 09:58:52;;;;;;;3.38;2.80;;;;;;;1.45;93.17;94364.78;5030731;28;20211;-77
2022/12/14 10:01:44;;;;;;;4.57;2.92;;;;;;;1.29;93.06;94370.19;5025991;28;20200;-75
2022/12/14 10:04:21;;;;;;;9.35;4.32;;;;;;;1.22;93.52;94348.38;5033134;28;20216;-76
2022/12/14 10:06:55;;;;;;;7.28;2.15;;;;;;;1.10;95.22;94339.88;5032480;28;20236;-76
2022/12/14 10:09:32;;;;;;;1.98;1.77;;;;;;;0.94;95.79;94349.06;5033178;28;20243;-76
2022/12/14 10:12:10;;;;;;;3.20;2.88;;;;;;;0.97;96.45;94351.16;5032439;28;20610;-76
2022/12/14 10:14:55;;;;;;;6.38;2.72;;;;;;;1.06;95.22;94339.66;5032221;28;20205;-77
2022/12/14 10:17:32;;;;;;;5.80;3.10;;;;;;;1.34;95.36;94346.16;5032645;28;20200;-77
2022/12/14 10:20:03;;;;;;;2.50;1.95;;;;;;;1.33;95.38;94344.56;5031910;28;20250;-76
2022/12/14 10:22:37;;;;;;;2.00;1.90;;;;;;;1.70;93.73;94343.22;5032771;28;20239;-76
2022/12/14 10:25:11;;;;;;;2.72;1.73;;;;;;;1.47;91.51;94349.28;5044181;28;20752;-77
2022/12/14 10:27:41;;;;;;;1.33;1.23;;;;;;;1.30;91.51;94328.31;5032370;28;20197;-76
2022/12/14 10:30:16;;;;;;;2.45;1.83;;;;;;;1.79;91.33;94330.88;5031875;28;20208;-77
2022/12/14 10:32:47;;;;;;;4.35;2.15;;;;;;;1.91;88.14;94327.84;5031898;28;20344;-75
2022/12/14 10:35:15;;;;;;;6.32;2.90;;;;;;;1.75;87.71;94324.50;5032712;28;20204;-77
2022/12/14 10:37:45;;;;;;;4.32;2.25;;;;;;;1.70;88.31;94317.34;5032909;28;20250;-76
2022/12/14 10:40:20;;;;;;;5.32;2.58;;;;;;;1.32;88.81;94316.28;5032837;28;20212;-76
2022/12/14 10:42:55;;;;;;;4.38;1.58;;;;;;;1.75;88.31;94313.84;5031657;28;20219;-77
2022/12/14 10:45:32;;;;;;;1.88;1.58;;;;;;;2.26;85.93;94302.66;5031159;28;20671;-77
2022/12/14 10:48:13;;;;;;;3.47;1.95;;;;;;;2.87;86.34;94312.66;5032783;28;20200;-77
2022/12/14 10:50:53;;;;;;;6.70;3.30;;;;;;;2.49;83.99;94312.56;5032393;28;20208;-77
2022/12/14 10:53:27;;;;;;;2.00;1.75;;;;;;;2.68;85.63;94313.41;5031236;28;20674;-77
2022/12/14 10:56:00;;;;;;;2.97;2.00;;;;;;;2.84;85.89;94301.44;5031103;28;20296;-78
2022/12/14 10:58:27;;;;;;;4.30;2.80;;;;;;;3.19;84.45;94296.69;5031389;28;20262;-78
2022/12/14 11:00:54;;;;;;;4.72;2.67;;;;;;;3.30;83.85;94300.81;5031787;28;20208;-77
2022/12/14 11:03:21;;;;;;;2.92;2.28;;;;;;;2.94;83.68;94299.72;5032454;28;20642;-78
2022/12/14 11:05:58;;;;;;;1.60;1.50;;;;;;;3.09;83.85;94292.28;5031883;28;20243;-80
2022/12/14 11:08:44;;;;;;;3.55;2.13;;;;;;;2.81;83.86;94288.63;5032284;28;20752;-79
2022/12/14 11:11:16;;;;;;;4.57;2.00;;;;;;;2.63;84.79;94292.06;5031649;28;20258;-79
2022/12/14 11:13:51;;;;;;;2.80;1.83;;;;;;;2.47;85.11;94282.63;5032082;28;20196;-77
2022/12/14 11:16:24;;;;;;;3.58;2.58;;;;;;;2.79;87.50;94280.09;5030726;28;20211;-78
2022/12/14 11:18:58;;;;;;;1.92;1.50;;;;;;;2.91;86.47;94281.56;5031682;28;20204;-78
2022/12/14 11:21:31;;;;;;;3.88;2.97;;;;;;;2.67;84.46;94261.00;5031029;28;20753;-79
2022/12/14 11:24:00;;;;;;;8.70;2.35;;;;;;;2.94;84.39;94281.00;5040790;28;20230;-78
2022/12/14 11:26:32;;;;;;;3.80;2.42;;;;;;;2.98;85.73;94282.00;5032053;28;20308;-79
2022/12/14 11:29:01;;;;;;;4.40;2.38;;;;;;;3.34;84.71;94259.00;5031426;28;20205;-78
2022/12/14 11:31:34;;;;;;;4.30;2.95;;;;;;;3.66;83.20;94268.16;5031067;28;20759;-78
2022/12/14 11:34:03;;;;;;;6.47;3.80;;;;;;;4.07;82.37;94265.56;5032491;28;20236;-79
2022/12/14 11:36:34;;;;;;;9.77;3.55;;;;;;;3.41;79.46;94269.34;5031361;28;20259;-78
2022/12/14 11:39:06;;;;;;;8.15;3.28;;;;;;;3.35;80.81;94249.88;5032587;28;20208;-79
2022/12/14 11:41:35;;;;;;;5.38;3.70;;;;;;;3.70;82.71;94250.38;5031142;28;20235;-78
2022/12/14 11:44:21;;;;;;;7.50;3.20;;;;;;;3.50;81.48;94263.03;5030611;28;20274;-78
2022/12/14 11:46:53;;;;;;;2.83;2.22;;;;;;;3.77;79.63;94256.19;5030745;28;20299;-80
2022/12/14 11:49:33;;;;;;;4.32;2.78;;;;;;;3.94;80.77;94261.78;5031847;28;20200;-78
2022/12/14 11:52:06;;;;;;;3.60;2.30;;;;;;;3.34;81.81;94250.97;5031658;28;20316;-79
2022/12/14 11:54:36;;;;;;;5.55;3.90;;;;;;;3.40;82.80;94249.81;5031225;28;20208;-81
2022/12/14 11:57:07;;;;;;;2.28;2.03;;;;;;;2.91;84.54;94254.81;5030681;28;20262;-80
2022/12/14 11:59:42;;;;;;;1.58;1.38;;;;;;;2.70;85.23;94249.75;5031901;28;20205;-78
2022/12/14 12:02:19;;;;;;;2.92;2.13;;;;;;;2.77;85.07;94255.53;5031671;28;20211;-79
2022/12/14 12:04:50;;;;;;;4.03;2.28;;;;;;;2.84;84.71;94253.31;5031298;28;20303;-79
2022/12/14 12:07:24;;;;;;;6.85;3.22;;;;;;;2.84;85.90;94250.63;5030831;28;20655;-79
2022/12/14 12:09:52;;;;;;;5.40;2.60;;;;;;;2.72;86.00;94262.84;5030809;28;20253;-78